sensor_id;sensor_type;location;lat;lon;timestamp;P1;durP1;ratioP1;P2;durP2;ratioP2
17866;SDS011;9059;49.934;8.650;2023-06-26T00:01:06;5.90;;;3.17;;
17866;SDS011;9059;49.934;8.650;2023-06-26T00:11:09;4.72;;;3.05;;
17866;SDS011;9059;49.934;8.650;2023-06-26T00:21:13;5.60;;;3.30;;
17866;SDS011;9059;49.934;8.650;2023-06-26T00:31:16;6.38;;;3.42;;
17866;SDS011;9059;49.934;8.650;2023-06-26T00:41:20;5.07;;;2.95;;
17866;SDS011;9059;49.934;8.650;2023-06-26T00:51:23;6.88;;;2.80;;
17866;SDS011;9059;49.934;8.650;2023-06-26T01:01:27;6.10;;;3.15;;
17866;SDS011;9059;49.934;8.650;2023-06-26T01:11:30;7.60;;;3.47;;
17866;SDS011;9059;49.934;8.650;2023-06-26T01:21:34;7.32;;;2.90;;
17866;SDS011;9059;49.934;8.650;2023-06-26T01:31:39;5.43;;;3.17;;
17866;SDS011;9059;49.934;8.650;2023-06-26T01:41:42;6.78;;;3.50;;
17866;SDS011;9059;49.934;8.650;2023-06-26T01:51:48;5.97;;;3.22;;
17866;SDS011;9059;49.934;8.650;2023-06-26T02:01:55;6.97;;;3.25;;
17866;SDS011;9059;49.934;8.650;2023-06-26T02:11:59;10.15;;;3.13;;
17866;SDS011;9059;49.934;8.650;2023-06-26T02:22:02;6.05;;;3.30;;
17866;SDS011;9059;49.934;8.650;2023-06-26T02:32:07;5.78;;;3.38;;
17866;SDS011;9059;49.934;8.650;2023-06-26T02:42:10;10.75;;;3.05;;
17866;SDS011;9059;49.934;8.650;2023-06-26T02:52:14;8.10;;;3.35;;
17866;SDS011;9059;49.934;8.650;2023-06-26T03:02:16;5.18;;;3.17;;
17866;SDS011;9059;49.934;8.650;2023-06-26T03:12:21;7.15;;;3.35;;
17866;SDS011;9059;49.934;8.650;2023-06-26T03:22:24;6.15;;;3.00;;
17866;SDS011;9059;49.934;8.650;2023-06-26T03:32:29;5.82;;;3.22;;
17866;SDS011;9059;49.934;8.650;2023-06-26T03:42:32;7.75;;;3.45;;
17866;SDS011;9059;49.934;8.650;2023-06-26T03:52:36;6.20;;;3.70;;
17866;SDS011;9059;49.934;8.650;2023-06-26T04:02:39;8.13;;;3.10;;
17866;SDS011;9059;49.934;8.650;2023-06-26T04:12:43;5.72;;;3.33;;
17866;SDS011;9059;49.934;8.650;2023-06-26T04:22:46;12.00;;;4.20;;
17866;SDS011;9059;49.934;8.650;2023-06-26T04:32:50;7.03;;;3.28;;
17866;SDS011;9059;49.934;8.650;2023-06-26T04:42:53;8.38;;;3.92;;
17866;SDS011;9059;49.934;8.650;2023-06-26T04:52:57;6.20;;;3.45;;
17866;SDS011;9059;49.934;8.650;2023-06-26T05:03:00;7.72;;;3.72;;
17866;SDS011;9059;49.934;8.650;2023-06-26T05:13:04;6.65;;;3.80;;
17866;SDS011;9059;49.934;8.650;2023-06-26T05:23:07;7.45;;;4.00;;
17866;SDS011;9059;49.934;8.650;2023-06-26T05:33:12;8.70;;;4.88;;
17866;SDS011;9059;49.934;8.650;2023-06-26T05:43:15;7.60;;;4.32;;
17866;SDS011;9059;49.934;8.650;2023-06-26T05:53:30;15.32;;;5.55;;
17866;SDS011;9059;49.934;8.650;2023-06-26T06:03:33;11.10;;;5.28;;
17866;SDS011;9059;49.934;8.650;2023-06-26T06:13:37;13.97;;;6.77;;
17866;SDS011;9059;49.934;8.650;2023-06-26T06:23:40;10.20;;;5.55;;
17866;SDS011;9059;49.934;8.650;2023-06-26T06:33:44;7.65;;;4.90;;
17866;SDS011;9059;49.934;8.650;2023-06-26T06:43:47;8.00;;;4.68;;
17866;SDS011;9059;49.934;8.650;2023-06-26T06:53:51;8.20;;;4.45;;
17866;SDS011;9059;49.934;8.650;2023-06-26T07:03:54;10.07;;;4.78;;
17866;SDS011;9059;49.934;8.650;2023-06-26T07:13:58;10.50;;;4.53;;
17866;SDS011;9059;49.934;8.650;2023-06-26T07:24:01;9.32;;;4.43;;
17866;SDS011;9059;49.934;8.650;2023-06-26T07:34:05;7.28;;;4.20;;
17866;SDS011;9059;49.934;8.650;2023-06-26T07:44:07;7.50;;;4.20;;
17866;SDS011;9059;49.934;8.650;2023-06-26T07:54:12;16.92;;;4.93;;
17866;SDS011;9059;49.934;8.650;2023-06-26T08:04:14;8.80;;;4.70;;
17866;SDS011;9059;49.934;8.650;2023-06-26T08:14:19;7.68;;;4.53;;
17866;SDS011;9059;49.934;8.650;2023-06-26T08:24:22;10.93;;;4.78;;
17866;SDS011;9059;49.934;8.650;2023-06-26T08:34:26;15.20;;;5.35;;
17866;SDS011;9059;49.934;8.650;2023-06-26T08:44:29;15.68;;;5.00;;
17866;SDS011;9059;49.934;8.650;2023-06-26T08:54:34;11.75;;;4.85;;
17866;SDS011;9059;49.934;8.650;2023-06-26T09:04:40;11.25;;;5.13;;
17866;SDS011;9059;49.934;8.650;2023-06-26T09:14:44;9.48;;;4.10;;
17866;SDS011;9059;49.934;8.650;2023-06-26T09:24:47;8.85;;;4.93;;
17866;SDS011;9059;49.934;8.650;2023-06-26T09:34:51;11.32;;;4.05;;
17866;SDS011;9059;49.934;8.650;2023-06-26T09:44:55;8.60;;;4.05;;
17866;SDS011;9059;49.934;8.650;2023-06-26T10:05:20;6.53;;;4.07;;
17866;SDS011;9059;49.934;8.650;2023-06-26T10:15:24;5.85;;;3.80;;
17866;SDS011;9059;49.934;8.650;2023-06-26T10:25:28;8.00;;;4.57;;
17866;SDS011;9059;49.934;8.650;2023-06-26T10:35:43;7.60;;;3.78;;
17866;SDS011;9059;49.934;8.650;2023-06-26T10:45:46;8.38;;;3.58;;
17866;SDS011;9059;49.934;8.650;2023-06-26T10:55:58;7.85;;;4.20;;
17866;SDS011;9059;49.934;8.650;2023-06-26T11:06:11;9.63;;;4.25;;
17866;SDS011;9059;49.934;8.650;2023-06-26T11:16:16;9.38;;;4.07;;
17866;SDS011;9059;49.934;8.650;2023-06-26T11:26:19;5.72;;;3.60;;
17866;SDS011;9059;49.934;8.650;2023-06-26T11:36:24;6.13;;;4.25;;
17866;SDS011;9059;49.934;8.650;2023-06-26T11:46:28;6.78;;;3.70;;
17866;SDS011;9059;49.934;8.650;2023-06-26T11:56:32;6.82;;;3.40;;
17866;SDS011;9059;49.934;8.650;2023-06-26T12:06:35;18.70;;;4.13;;
17866;SDS011;9059;49.934;8.650;2023-06-26T12:16:40;8.00;;;4.20;;
17866;SDS011;9059;49.934;8.650;2023-06-26T12:26:43;8.30;;;4.93;;
17866;SDS011;9059;49.934;8.650;2023-06-26T12:36:48;10.10;;;6.50;;
17866;SDS011;9059;49.934;8.650;2023-06-26T12:46:56;9.13;;;5.60;;
17866;SDS011;9059;49.934;8.650;2023-06-26T12:57:01;9.88;;;5.88;;
17866;SDS011;9059;49.934;8.650;2023-06-26T13:07:05;11.48;;;5.00;;
17866;SDS011;9059;49.934;8.650;2023-06-26T13:17:10;6.82;;;3.67;;
17866;SDS011;9059;49.934;8.650;2023-06-26T13:27:13;6.78;;;3.70;;
17866;SDS011;9059;49.934;8.650;2023-06-26T13:37:18;8.40;;;3.60;;
17866;SDS011;9059;49.934;8.650;2023-06-26T13:47:21;9.95;;;3.92;;
17866;SDS011;9059;49.934;8.650;2023-06-26T13:57:26;6.60;;;3.80;;
17866;SDS011;9059;49.934;8.650;2023-06-26T14:07:29;7.75;;;3.63;;
17866;SDS011;9059;49.934;8.650;2023-06-26T14:17:34;4.18;;;2.75;;
17866;SDS011;9059;49.934;8.650;2023-06-26T14:27:37;4.63;;;2.53;;
17866;SDS011;9059;49.934;8.650;2023-06-26T14:37:41;3.67;;;2.53;;
17866;SDS011;9059;49.934;8.650;2023-06-26T14:47:45;12.38;;;2.90;;
17866;SDS011;9059;49.934;8.650;2023-06-26T14:57:49;7.38;;;2.50;;
17866;SDS011;9059;49.934;8.650;2023-06-26T15:07:52;8.82;;;2.78;;
17866;SDS011;9059;49.934;8.650;2023-06-26T15:17:56;5.95;;;2.10;;
17866;SDS011;9059;49.934;8.650;2023-06-26T15:27:59;4.63;;;1.88;;
17866;SDS011;9059;49.934;8.650;2023-06-26T15:38:03;4.47;;;1.80;;
17866;SDS011;9059;49.934;8.650;2023-06-26T15:48:06;8.63;;;1.70;;
17866;SDS011;9059;49.934;8.650;2023-06-26T15:58:10;2.40;;;1.30;;
17866;SDS011;9059;49.934;8.650;2023-06-26T16:08:13;8.57;;;1.30;;
17866;SDS011;9059;49.934;8.650;2023-06-26T16:18:17;6.50;;;1.30;;
17866;SDS011;9059;49.934;8.650;2023-06-26T16:28:20;5.13;;;1.23;;
17866;SDS011;9059;49.934;8.650;2023-06-26T16:38:24;5.95;;;1.52;;
17866;SDS011;9059;49.934;8.650;2023-06-26T16:48:27;4.82;;;1.42;;
17866;SDS011;9059;49.934;8.650;2023-06-26T16:58:31;6.80;;;1.38;;
17866;SDS011;9059;49.934;8.650;2023-06-26T17:08:34;2.50;;;1.25;;
17866;SDS011;9059;49.934;8.650;2023-06-26T17:18:39;6.28;;;1.63;;
17866;SDS011;9059;49.934;8.650;2023-06-26T17:28:41;6.18;;;1.13;;
17866;SDS011;9059;49.934;8.650;2023-06-26T17:38:46;1.65;;;1.00;;
17866;SDS011;9059;49.934;8.650;2023-06-26T17:48:49;2.63;;;1.10;;
17866;SDS011;9059;49.934;8.650;2023-06-26T17:58:56;4.18;;;1.52;;
17866;SDS011;9059;49.934;8.650;2023-06-26T18:08:59;1.67;;;0.90;;
17866;SDS011;9059;49.934;8.650;2023-06-26T18:19:03;5.35;;;1.33;;
17866;SDS011;9059;49.934;8.650;2023-06-26T18:29:06;1.48;;;0.88;;
17866;SDS011;9059;49.934;8.650;2023-06-26T18:39:10;6.90;;;0.98;;
17866;SDS011;9059;49.934;8.650;2023-06-26T18:49:13;2.53;;;1.15;;
17866;SDS011;9059;49.934;8.650;2023-06-26T18:59:17;6.00;;;0.75;;
17866;SDS011;9059;49.934;8.650;2023-06-26T19:09:20;1.48;;;1.00;;
17866;SDS011;9059;49.934;8.650;2023-06-26T19:19:26;1.98;;;1.10;;
17866;SDS011;9059;49.934;8.650;2023-06-26T19:29:29;4.68;;;1.00;;
17866;SDS011;9059;49.934;8.650;2023-06-26T19:39:33;5.25;;;1.15;;
17866;SDS011;9059;49.934;8.650;2023-06-26T19:49:36;4.22;;;1.15;;
17866;SDS011;9059;49.934;8.650;2023-06-26T19:59:40;3.30;;;1.10;;
17866;SDS011;9059;49.934;8.650;2023-06-26T20:09:43;6.60;;;1.08;;
17866;SDS011;9059;49.934;8.650;2023-06-26T20:19:47;8.93;;;1.10;;
17866;SDS011;9059;49.934;8.650;2023-06-26T20:29:50;1.75;;;0.88;;
17866;SDS011;9059;49.934;8.650;2023-06-26T20:39:54;2.20;;;0.85;;
17866;SDS011;9059;49.934;8.650;2023-06-26T20:49:58;5.05;;;0.98;;
17866;SDS011;9059;49.934;8.650;2023-06-26T21:00:02;4.78;;;0.80;;
17866;SDS011;9059;49.934;8.650;2023-06-26T21:10:07;2.92;;;0.80;;
17866;SDS011;9059;49.934;8.650;2023-06-26T21:20:12;3.92;;;0.90;;
17866;SDS011;9059;49.934;8.650;2023-06-26T21:30:14;3.10;;;0.98;;
17866;SDS011;9059;49.934;8.650;2023-06-26T21:40:19;3.72;;;1.10;;
17866;SDS011;9059;49.934;8.650;2023-06-26T21:50:22;4.00;;;1.15;;
17866;SDS011;9059;49.934;8.650;2023-06-26T22:00:26;7.07;;;1.00;;
17866;SDS011;9059;49.934;8.650;2023-06-26T22:10:28;9.20;;;1.02;;
17866;SDS011;9059;49.934;8.650;2023-06-26T22:20:33;3.80;;;0.80;;
17866;SDS011;9059;49.934;8.650;2023-06-26T22:30:36;2.72;;;0.90;;
17866;SDS011;9059;49.934;8.650;2023-06-26T22:40:40;10.10;;;1.20;;
17866;SDS011;9059;49.934;8.650;2023-06-26T22:50:43;1.98;;;0.90;;
17866;SDS011;9059;49.934;8.650;2023-06-26T23:00:49;3.00;;;0.95;;
17866;SDS011;9059;49.934;8.650;2023-06-26T23:10:51;5.30;;;0.93;;
17866;SDS011;9059;49.934;8.650;2023-06-26T23:20:56;2.83;;;0.90;;
17866;SDS011;9059;49.934;8.650;2023-06-26T23:30:59;3.75;;;1.00;;
17866;SDS011;9059;49.934;8.650;2023-06-26T23:41:03;1.25;;;0.57;;
17866;SDS011;9059;49.934;8.650;2023-06-26T23:51:06;2.85;;;0.90;;
